Terminal Aerodrome Forecast
Issued by NWS

Home | Current Version | Previous Version | Text Only | Print | Product List | Glossary On
Versions: 1 2 3 4 5 6 7 8 9 10 11 12 13
554
FTPA31 PHFO 291738
TAFHTO
TAF
PHTO 291738Z 2918/3018 29005KT P6SM VCSH SCT025 BKN035
     FM292000 02011KT P6SM VCSH SCT025 BKN045
     FM300600 24005KT P6SM VCSH SCT025 BKN035=

USA.gov is the U.S. government's official web portal to all federal, state and local government web resources and services.